createdAt,value
2022-09-30T00:02:01.346Z,23.63
2022-09-30T00:04:28.079Z,24.05
2022-09-30T00:06:54.783Z,23.08
2022-09-30T00:09:22.633Z,23.38
2022-09-30T00:11:55.281Z,24.52
2022-09-30T00:14:36.648Z,24.30
2022-09-30T00:18:20.784Z,23.33
2022-09-30T00:20:28.718Z,22.55
2022-09-30T00:23:08.491Z,22.05
2022-09-30T00:25:37.549Z,20.98
2022-09-30T00:28:14.920Z,20.70
2022-09-30T00:30:43.795Z,19.63
2022-09-30T00:33:18.045Z,18.30
2022-09-30T00:35:50.059Z,17.67
2022-09-30T00:38:19.370Z,18.25
2022-09-30T00:40:55.249Z,16.63
2022-09-30T00:44:08.378Z,18.17
2022-09-30T00:47:16.206Z,17.92
2022-09-30T00:49:52.402Z,16.83
2022-09-30T00:52:24.316Z,17.45
2022-09-30T00:54:55.920Z,16.58
2022-09-30T00:57:22.755Z,16.90
2022-09-30T00:59:54.018Z,15.20
2022-09-30T01:02:21.127Z,16.77
2022-09-30T01:04:49.809Z,15.38
2022-09-30T01:07:17.859Z,15.48
2022-09-30T01:09:55.862Z,15.65
2022-09-30T01:12:25.183Z,15.68
2022-09-30T01:14:53.942Z,15.98
2022-09-30T01:17:50.626Z,15.82
2022-09-30T01:20:36.019Z,14.98
2022-09-30T01:23:41.189Z,15.93
2022-09-30T01:26:24.854Z,15.90
2022-09-30T01:29:07.250Z,14.75
2022-09-30T01:31:54.116Z,14.32
2022-09-30T01:34:52.439Z,14.52
2022-09-30T01:37:38.719Z,15.35
2022-09-30T01:40:22.569Z,14.50
2022-09-30T01:43:06.046Z,15.30
2022-09-30T01:45:38.972Z,14.82
2022-09-30T01:48:35.762Z,15.55
2022-09-30T01:51:08.613Z,14.88
2022-09-30T01:54:14.376Z,16.42
2022-09-30T01:56:58.893Z,16.65
2022-09-30T01:59:33.670Z,15.60
2022-09-30T02:02:10.416Z,16.52
2022-09-30T02:04:58.194Z,15.35
2022-09-30T02:07:39.058Z,16.58
2022-09-30T02:10:25.412Z,16.63
2022-09-30T02:13:10.987Z,17.55
2022-09-30T02:15:44.617Z,15.55
2022-09-30T02:18:20.490Z,16.13
2022-09-30T02:21:05.043Z,15.57
2022-09-30T02:23:43.967Z,15.85
2022-09-30T02:26:31.571Z,16.50
2022-09-30T02:29:17.912Z,15.73
2022-09-30T02:32:00.533Z,17.20
2022-09-30T02:35:17.745Z,16.65
2022-09-30T02:38:09.355Z,17.08
2022-09-30T02:40:52.608Z,16.80
2022-09-30T02:43:34.976Z,15.70
2022-09-30T02:46:44.544Z,15.23
2022-09-30T02:49:55.451Z,15.45
2022-09-30T02:52:56.275Z,14.68
2022-09-30T02:56:10.896Z,16.30
2022-09-30T02:58:51.998Z,15.90
2022-09-30T03:01:32.570Z,14.93
2022-09-30T03:06:44.889Z,15.70
2022-09-30T03:09:17.109Z,14.80
2022-09-30T03:12:17.349Z,15.48
2022-09-30T03:15:13.592Z,14.48
2022-09-30T03:18:22.649Z,14.27
2022-09-30T03:21:14.249Z,14.63
2022-09-30T03:24:16.214Z,14.73
2022-09-30T03:27:09.152Z,16.40
2022-09-30T03:30:10.522Z,15.20
2022-09-30T03:33:30.486Z,15.25
2022-09-30T03:36:37.831Z,14.57
2022-09-30T03:43:46.221Z,13.95
2022-09-30T03:47:27.038Z,13.55
2022-09-30T03:57:56.062Z,15.05
2022-09-30T04:04:21.542Z,15.30
2022-09-30T04:06:57.557Z,16.05
2022-09-30T04:09:58.776Z,16.55
2022-09-30T04:12:34.132Z,17.52
2022-09-30T04:15:29.425Z,16.55
2022-09-30T04:18:24.249Z,16.73
2022-09-30T04:21:06.189Z,16.15
2022-09-30T04:23:36.732Z,18.10
2022-09-30T04:26:16.099Z,15.98
2022-09-30T04:29:05.836Z,18.23
2022-09-30T04:31:32.834Z,19.13
2022-09-30T04:34:01.104Z,17.98
2022-09-30T04:36:27.936Z,16.92
2022-09-30T04:38:54.795Z,17.08
2022-09-30T04:41:22.567Z,16.23
2022-09-30T04:43:49.609Z,17.40
2022-09-30T04:46:18.980Z,16.67
2022-09-30T04:48:47.544Z,16.20
2022-09-30T04:51:23.516Z,16.15
2022-09-30T04:53:50.629Z,16.60
2022-09-30T04:56:17.749Z,17.02
2022-09-30T04:58:45.417Z,16.63
2022-09-30T05:01:14.965Z,17.73
2022-09-30T05:03:41.826Z,16.57
2022-09-30T05:06:09.981Z,15.77
2022-09-30T05:08:41.750Z,16.95
2022-09-30T05:11:16.380Z,16.75
2022-09-30T05:13:46.947Z,16.80
2022-09-30T05:16:15.299Z,15.15
2022-09-30T05:18:46.316Z,14.85
2022-09-30T05:21:20.682Z,13.27
2022-09-30T05:23:48.169Z,14.90
2022-09-30T05:26:15.540Z,14.55
2022-09-30T05:28:45.034Z,12.68
2022-09-30T05:31:13.842Z,13.90
2022-09-30T05:33:42.007Z,13.88
2022-09-30T05:36:13.378Z,15.13
2022-09-30T05:38:42.021Z,13.48
2022-09-30T05:41:12.129Z,15.05
2022-09-30T05:43:40.964Z,14.27
2022-09-30T05:46:19.698Z,13.45
2022-09-30T05:48:49.132Z,15.55
2022-09-30T05:51:17.573Z,16.85
2022-09-30T05:53:44.810Z,16.05
2022-09-30T05:56:12.912Z,16.35
2022-09-30T05:59:03.296Z,17.55
2022-09-30T06:01:30.375Z,23.80
2022-09-30T06:03:57.459Z,21.30
2022-09-30T06:06:27.005Z,17.38
2022-09-30T06:08:54.987Z,16.33
2022-09-30T06:11:40.600Z,16.55
2022-09-30T06:14:08.842Z,15.82
2022-09-30T06:16:36.315Z,16.42
2022-09-30T06:19:06.855Z,14.50
2022-09-30T06:24:50.460Z,17.08
2022-09-30T06:27:22.180Z,16.17
2022-09-30T06:30:23.031Z,17.05
2022-09-30T06:32:49.999Z,17.60
2022-09-30T06:35:17.513Z,19.08
2022-09-30T06:37:58.261Z,18.67
2022-09-30T06:40:26.052Z,18.27
2022-09-30T06:43:05.065Z,18.33
2022-09-30T06:45:33.492Z,18.00
2022-09-30T06:48:04.726Z,18.55
2022-09-30T06:51:01.944Z,20.50
2022-09-30T06:53:29.843Z,19.27
2022-09-30T06:56:28.108Z,17.67
2022-09-30T06:58:59.394Z,17.00
2022-09-30T07:01:27.214Z,17.52
2022-09-30T07:03:58.236Z,17.65
2022-09-30T07:06:29.277Z,16.08
2022-09-30T07:09:24.800Z,16.88
2022-09-30T07:11:53.081Z,16.42
2022-09-30T07:14:23.757Z,16.45
2022-09-30T07:16:55.597Z,16.45
2022-09-30T07:19:23.260Z,14.88
2022-09-30T07:22:34.639Z,16.67
2022-09-30T07:25:04.037Z,15.07
2022-09-30T07:27:59.881Z,15.23
2022-09-30T07:30:27.580Z,14.50
2022-09-30T07:32:54.828Z,16.02
2022-09-30T07:35:51.269Z,14.30
2022-09-30T07:38:20.125Z,15.73
2022-09-30T07:41:29.024Z,15.18
2022-09-30T07:43:58.852Z,14.07
2022-09-30T07:46:29.930Z,13.35
2022-09-30T07:49:05.879Z,12.88
2022-09-30T07:51:38.377Z,11.80
2022-09-30T07:54:35.306Z,13.38
2022-09-30T07:57:11.027Z,12.90
2022-09-30T08:00:40.531Z,13.65
2022-09-30T08:03:03.113Z,12.00
2022-09-30T08:05:32.469Z,13.30
2022-09-30T08:08:00.945Z,13.13
2022-09-30T08:10:27.968Z,14.70
2022-09-30T08:13:16.868Z,13.68
2022-09-30T08:15:45.167Z,13.02
2022-09-30T08:18:12.360Z,13.52
2022-09-30T08:20:39.137Z,12.90
2022-09-30T08:23:05.948Z,12.57
2022-09-30T08:26:12.123Z,11.63
2022-09-30T08:28:40.846Z,12.55
2022-09-30T08:31:15.138Z,10.38
2022-09-30T08:33:42.715Z,13.48
2022-09-30T08:36:15.145Z,10.73
2022-09-30T08:39:11.298Z,10.90
2022-09-30T08:41:59.777Z,11.75
2022-09-30T08:45:11.491Z,11.23
2022-09-30T08:48:03.974Z,10.95
2022-09-30T08:50:35.091Z,9.93
2022-09-30T08:53:09.986Z,10.80
2022-09-30T08:55:44.305Z,12.02
2022-09-30T08:58:38.005Z,10.95
2022-09-30T09:01:32.695Z,11.85
2022-09-30T09:04:33.569Z,10.90
2022-09-30T09:07:16.252Z,11.50
2022-09-30T09:10:15.192Z,13.48
2022-09-30T09:13:00.288Z,11.32
2022-09-30T09:15:41.257Z,11.48
2022-09-30T09:18:41.952Z,12.82
2022-09-30T09:21:22.123Z,13.00
2022-09-30T09:24:27.637Z,12.48
2022-09-30T09:26:56.377Z,13.45
2022-09-30T09:30:12.381Z,12.50
2022-09-30T09:32:39.470Z,13.07
2022-09-30T09:35:20.882Z,15.50
2022-09-30T09:38:20.481Z,14.40
2022-09-30T09:41:00.653Z,16.80
2022-09-30T09:43:49.193Z,13.63
2022-09-30T09:46:26.190Z,15.10
2022-09-30T09:49:49.602Z,15.60
2022-09-30T09:52:51.050Z,44.60
2022-09-30T09:55:21.809Z,16.85
2022-09-30T09:58:04.260Z,14.70
2022-09-30T10:00:50.036Z,14.90
2022-09-30T10:03:23.563Z,21.48
2022-09-30T10:06:12.837Z,17.15
2022-09-30T10:09:32.167Z,18.35
2022-09-30T10:12:08.443Z,14.98
2022-09-30T10:15:13.582Z,14.90
2022-09-30T10:17:40.606Z,15.93
2022-09-30T10:20:21.626Z,15.07
2022-09-30T10:22:49.160Z,16.27
2022-09-30T10:25:23.641Z,32.90
2022-09-30T10:28:49.615Z,16.13
2022-09-30T10:31:36.213Z,13.93
2022-09-30T10:34:56.723Z,14.60
2022-09-30T10:37:28.423Z,14.50
2022-09-30T10:40:01.499Z,12.73
2022-09-30T10:42:31.920Z,14.80
2022-09-30T10:48:17.593Z,14.23
2022-09-30T10:50:52.276Z,13.75
2022-09-30T10:54:11.065Z,14.63
2022-09-30T10:56:44.324Z,15.57
2022-09-30T11:00:07.609Z,15.05
2022-09-30T11:03:14.015Z,14.70
2022-09-30T11:06:32.343Z,16.05
2022-09-30T11:09:13.275Z,14.18
2022-09-30T11:11:56.297Z,15.07
2022-09-30T11:14:36.033Z,18.42
2022-09-30T11:17:28.935Z,13.75
2022-09-30T11:20:20.719Z,14.13
2022-09-30T11:23:02.790Z,18.42
2022-09-30T11:26:24.371Z,19.67
2022-09-30T11:29:09.617Z,22.15
2022-09-30T11:32:26.258Z,20.58
2022-09-30T11:35:14.963Z,14.50
2022-09-30T11:38:19.333Z,17.95
2022-09-30T11:40:49.230Z,14.82
2022-09-30T11:44:00.247Z,14.52
2022-09-30T11:46:44.815Z,18.52
2022-09-30T11:50:00.773Z,12.27
2022-09-30T11:52:59.239Z,20.85
2022-09-30T11:55:41.562Z,16.30
2022-09-30T11:58:46.059Z,13.40
2022-09-30T12:01:28.847Z,17.02
2022-09-30T12:04:06.576Z,11.43
2022-09-30T12:07:16.830Z,8.15
2022-09-30T12:10:37.127Z,9.35
2022-09-30T12:13:12.513Z,9.00
2022-09-30T12:15:43.095Z,7.75
2022-09-30T12:18:17.497Z,8.48
2022-09-30T12:20:52.973Z,7.50
2022-09-30T12:30:18.612Z,12.57
2022-09-30T12:33:26.713Z,20.92
2022-09-30T12:36:48.178Z,10.95
2022-09-30T12:39:36.429Z,9.10
2022-09-30T12:42:22.379Z,9.30
2022-09-30T12:45:11.946Z,9.73
2022-09-30T12:47:49.776Z,8.63
2022-09-30T12:50:21.500Z,9.50
2022-09-30T12:52:49.102Z,9.02
2022-09-30T12:56:02.558Z,9.38
2022-09-30T12:58:34.437Z,9.82
2022-09-30T13:01:06.804Z,8.95
2022-09-30T13:03:53.457Z,9.10
2022-09-30T13:06:22.125Z,10.73
2022-09-30T13:09:07.989Z,8.70
2022-09-30T13:11:37.693Z,8.88
2022-09-30T13:14:19.440Z,9.65
2022-09-30T13:17:14.325Z,9.75
2022-09-30T13:19:45.837Z,9.48
2022-09-30T13:22:18.835Z,11.02
2022-09-30T13:24:58.031Z,11.82
2022-09-30T13:31:19.398Z,8.93
2022-09-30T13:36:25.927Z,9.35
2022-09-30T13:39:34.471Z,9.07
2022-09-30T13:42:26.819Z,16.30
2022-09-30T13:45:19.835Z,13.25
2022-09-30T13:48:22.404Z,7.68
2022-09-30T13:51:13.963Z,11.82
2022-09-30T13:54:34.179Z,9.60
2022-09-30T13:57:19.990Z,7.72
2022-09-30T14:00:40.025Z,8.40
2022-09-30T14:03:30.878Z,9.73
2022-09-30T14:06:32.490Z,8.38
2022-09-30T14:09:30.102Z,9.45
2022-09-30T14:12:45.583Z,7.53
2022-09-30T14:15:49.296Z,7.00
2022-09-30T14:19:11.226Z,7.78
2022-09-30T14:22:05.317Z,8.35
2022-09-30T14:25:30.263Z,6.60
2022-09-30T14:28:34.319Z,7.00
2022-09-30T14:31:08.823Z,6.25
2022-09-30T14:33:52.293Z,8.40
2022-09-30T14:36:42.112Z,6.65
2022-09-30T14:39:24.902Z,8.60
2022-09-30T14:42:05.898Z,7.88
2022-09-30T14:45:27.528Z,7.22
2022-09-30T14:48:12.061Z,8.10
2022-09-30T14:54:38.196Z,9.07
2022-09-30T15:01:01.336Z,6.20
2022-09-30T15:04:27.950Z,7.53
2022-09-30T15:06:59.945Z,14.93
2022-09-30T15:10:25.700Z,14.60
2022-09-30T15:12:58.611Z,7.85
2022-09-30T15:16:21.777Z,10.75
2022-09-30T15:19:46.026Z,8.77
2022-09-30T15:21:57.211Z,9.65
2022-09-30T15:24:31.604Z,19.40
2022-09-30T15:27:22.042Z,11.73
2022-09-30T15:30:23.892Z,10.43
2022-09-30T15:33:20.802Z,9.45
2022-09-30T15:36:46.705Z,9.65
2022-09-30T15:39:56.442Z,11.98
2022-09-30T15:42:41.529Z,11.98
2022-09-30T15:45:37.349Z,10.38
2022-09-30T15:49:00.466Z,11.60
2022-09-30T15:52:23.484Z,28.42
2022-09-30T15:55:46.945Z,14.50
2022-09-30T15:58:38.854Z,19.58
2022-09-30T16:04:54.340Z,12.20
2022-09-30T16:08:17.927Z,11.13
2022-09-30T16:11:03.152Z,9.30
2022-09-30T16:17:32.508Z,9.45
2022-09-30T16:20:19.947Z,10.55
2022-09-30T16:22:53.030Z,10.43
2022-09-30T16:25:34.520Z,11.35
2022-09-30T16:28:16.745Z,22.95
2022-09-30T16:30:56.242Z,16.48
2022-09-30T16:34:20.966Z,14.57
2022-09-30T16:37:07.661Z,12.07
2022-09-30T16:43:20.446Z,10.35
2022-09-30T16:46:44.859Z,9.48
2022-09-30T16:49:28.568Z,9.43
2022-09-30T16:52:38.233Z,9.57
2022-09-30T16:55:24.621Z,9.83
2022-09-30T16:57:58.831Z,10.85
2022-09-30T17:00:27.063Z,10.95
2022-09-30T17:03:03.240Z,12.45
2022-09-30T17:09:20.056Z,12.85
2022-09-30T17:15:35.448Z,14.55
2022-09-30T17:28:00.567Z,35.10
2022-09-30T17:34:15.915Z,28.40
2022-09-30T17:37:41.288Z,42.17
2022-09-30T17:40:54.901Z,40.70
2022-09-30T17:53:41.894Z,17.40
2022-09-30T18:00:04.716Z,17.50
2022-09-30T18:03:28.197Z,16.77
2022-09-30T18:06:02.523Z,15.82
2022-09-30T18:08:35.048Z,15.40
2022-09-30T18:11:14.133Z,15.02
2022-09-30T18:14:22.589Z,15.75
2022-09-30T18:17:07.115Z,16.13
2022-09-30T18:19:46.592Z,16.30
2022-09-30T18:26:31.840Z,16.67
2022-09-30T18:29:54.329Z,17.40
2022-09-30T18:32:46.159Z,15.90
2022-09-30T18:39:01.597Z,14.25
2022-09-30T18:42:24.731Z,18.27
2022-09-30T18:44:56.207Z,21.92
2022-09-30T18:48:19.351Z,22.25
2022-09-30T18:51:32.625Z,20.92
2022-09-30T18:58:29.517Z,16.92
2022-09-30T19:08:22.922Z,15.98
2022-09-30T19:11:34.636Z,17.20
2022-09-30T19:14:50.760Z,16.48
2022-09-30T19:17:27.918Z,16.55
2022-09-30T19:20:14.220Z,16.33
2022-09-30T19:23:00.482Z,15.95
2022-09-30T19:25:57.288Z,15.52
2022-09-30T19:29:26.354Z,15.23
2022-09-30T19:32:01.892Z,16.58
2022-09-30T19:35:03.118Z,15.05
2022-09-30T19:41:22.690Z,14.27
2022-09-30T19:51:12.635Z,15.63
2022-09-30T19:58:03.338Z,17.60
2022-09-30T20:00:38.211Z,16.27
2022-09-30T20:06:25.328Z,16.95
2022-09-30T20:09:25.918Z,18.58
2022-09-30T20:15:27.441Z,19.67
2022-09-30T20:21:59.427Z,20.27
2022-09-30T20:25:52.712Z,18.75
2022-09-30T20:28:43.491Z,18.67
2022-09-30T20:31:46.533Z,19.08
2022-09-30T20:34:33.554Z,18.65
2022-09-30T20:38:00.920Z,25.75
2022-09-30T20:40:33.428Z,21.60
2022-09-30T20:43:57.032Z,20.92
2022-09-30T20:46:36.339Z,17.85
2022-09-30T20:52:52.557Z,18.90
2022-09-30T20:56:12.827Z,19.75
2022-09-30T20:58:49.319Z,21.25
2022-09-30T21:01:34.791Z,21.67
2022-09-30T21:04:02.458Z,22.85
2022-09-30T21:06:38.373Z,25.48
2022-09-30T21:10:02.108Z,24.98
2022-09-30T21:12:41.536Z,26.92
2022-09-30T21:16:05.142Z,25.25
2022-09-30T21:18:35.048Z,25.75
2022-09-30T21:24:48.115Z,25.33
2022-09-30T21:27:20.452Z,26.40
2022-09-30T21:29:47.187Z,27.67
2022-09-30T21:32:20.923Z,27.95
2022-09-30T21:38:38.483Z,28.25
2022-09-30T21:44:57.731Z,30.70
2022-09-30T21:51:14.293Z,29.55
2022-09-30T21:54:37.483Z,30.67
2022-09-30T21:57:13.373Z,31.30
2022-09-30T22:03:36.135Z,26.63
2022-09-30T22:09:52.916Z,30.50
2022-09-30T22:16:23.714Z,30.88
2022-09-30T22:25:01.877Z,31.02
2022-09-30T22:27:28.976Z,30.42
2022-09-30T22:30:03.566Z,31.23
2022-09-30T22:32:34.921Z,33.28
2022-09-30T22:35:29.793Z,31.15
2022-09-30T22:38:16.433Z,37.38
2022-09-30T22:40:56.919Z,33.78
2022-09-30T22:46:08.909Z,32.70
2022-09-30T22:48:39.646Z,34.78
2022-09-30T22:51:16.903Z,37.20
2022-09-30T22:53:53.263Z,34.47
2022-09-30T22:56:24.865Z,35.42
2022-09-30T22:58:52.998Z,35.92
2022-09-30T23:01:25.930Z,34.00
2022-09-30T23:03:56.660Z,33.63
2022-09-30T23:06:27.052Z,32.35
2022-09-30T23:08:57.070Z,36.25
2022-09-30T23:11:34.159Z,35.22
2022-09-30T23:14:07.381Z,35.58
2022-09-30T23:16:43.277Z,33.22
2022-09-30T23:19:19.020Z,33.10
2022-09-30T23:21:48.148Z,33.60
2022-09-30T23:24:15.668Z,30.02
2022-09-30T23:26:51.438Z,33.47
2022-09-30T23:29:25.990Z,33.17
2022-09-30T23:32:04.227Z,31.83
2022-09-30T23:34:34.677Z,35.35
2022-09-30T23:39:35.337Z,32.88
2022-09-30T23:42:04.225Z,34.22
2022-09-30T23:44:35.482Z,34.83
2022-09-30T23:47:21.678Z,33.20
2022-09-30T23:49:55.751Z,33.60
2022-09-30T23:52:23.917Z,33.72
2022-09-30T23:54:55.358Z,31.30
2022-09-30T23:57:25.981Z,30.42
2022-09-30T23:59:54.147Z,32.25
